172-й км МНП

Карта отелей и гостиниц, располагающихся рядом с аэропортом 172-й км МНП :

172-й км МНП Республика Коми 65° 4' 5.88" N, 57° 2' 50.9388" E
172-й км МНП Республика Коми 65° 4' 5.88" N, 57° 2' 50.9388" E
Код аэродрома ИКАО
HEC4
Код аэродрома RU
ХЕЦ4
Координаты
N65.06830° E057.04748°
Превышение над уровнем моря
83
Основная полоса
05/23
Курс магнитный
048,8/228,8
Длина основной ВПП
11
Ширина основной ВПП
11
Покрытие основной ВПП
Твёрдое
Освещение ВПП
Нет
Тип: 
Вертодром
Класс аэродрома: 
Принадлежность: 
ГА
Статус: 
Действующий
Сайт: 
E-mail аэродрома: 
Страна: 
Россия
Регион: 
Республика Коми
Город: 
Дополнительная информация: 
Оператор: нет данных.

Найти трансфер

С помощью этой формы Вы можете найти трансфер из аэропорта 172-й км МНП в город, аэропорт или вокзал:

Карта места

Javascript is required to view this map.

Погода в аэропортах:

Авиационная погода в Нижневартовске

Регион: 
Погода METAR: 
USNN 251830Z 13005MPS 3700 1200NE FU NSC M40/M44 Q1038 R03/410265 NOSIG RMK QFE774
Время наблюдения
2021-01-25T18:30:00Z
Температура C
-40.0
Точка росы
-44.0
Направление ветра
130
Скорость ветра (узлы)
10
Метео видимость
2.3
Явления погоды
FU
Условия полета
IFR
Аэропорт подробнее: 

Авиационная погода в Иркутске

Регион: 
Погода METAR: 
UIII 251830Z 30005MPS 6000 -SHSN BKN024CB M17/M19 Q1027 R30/490540 NOSIG RMK QFE725/0966
Время наблюдения
2021-01-25T18:30:00Z
Температура C
-17.0
Точка росы
-19.0
Направление ветра
300
Скорость ветра (узлы)
10
Метео видимость
3.73
Явления погоды
-SHSN
Условия полета
MVFR
Аэропорт подробнее: 

Авиационная погода в Караганде

Регион: 
Погода METAR: 
UAKK 251830Z 25009MPS 3000 SN DRSN OVC012 M12/M15 Q1030 R23/820555 NOSIG RMK QFE725/0967
Время наблюдения
2021-01-25T18:30:00Z
Температура C
-12.0
Точка росы
-15.0
Направление ветра
250
Скорость ветра (узлы)
17
Метео видимость
1.86
Явления погоды
SN DRSN
Условия полета
IFR
Аэропорт подробнее: 

Авиационная погода в Николаеве

Регион: 
Погода METAR: 
UKON 251230Z 16010MPS 9000 -SHRA SCT///CB 10/07 Q1001 R04/290165 NOSIG
Время наблюдения
2021-01-25T12:30:00Z
Температура C
10.0
Точка росы
7.0
Направление ветра
160
Скорость ветра (узлы)
19
Метео видимость
5.59
Явления погоды
-SHRA
Условия полета